Aérodrome :
LOGIN :

S'inscrire | Disclaimer

   EN    FR    IT 

 










Légende :    VFR   VFR Marginal   IFR   IFR Intensif   IFR Très Intensif
Visi : 
Plafond : 
>= 8 km
>= 3000ft
5 à 8 km
1000 à 3000 ft
1500m à 5 km
500 à 1000 ft
800 à 1500m
200 à 500 ft
< 800m
< 200 ft
Symboles :   Orages  Brouillard  Fortes neiges  Fortes précipitations  Vent > 20 kt
SIGMETs :   Divers  Orages  Givrage  Turbulence  Onde Orograph.  Cendres Volcan.







- Altitude de l'aérodrome : 160 ft
- Code IATA : LRT
- Voir les cartes d'approche


LFRH - Lorient Lann Bihoue

DERNIER METAR :
  • 260330Z AUTO 35006KT CAVOK 01/00 Q1016 NOSIG

METARs EXPIRÉS :
  • 260300Z AUTO 35006KT CAVOK 01/M00 Q1016 NOSIG
  • 260230Z AUTO 35006KT CAVOK 01/M00 Q1016 NOSIG
  • 260200Z AUTO 36005KT CAVOK 01/M00 Q1016 NOSIG
  • 260130Z AUTO 35005KT CAVOK 01/M00 Q1016 NOSIG

TAF TAF LFRH
Valide du 26 à 00h jusqu'au 27 à 00h UTC


252300Z 2600/2624 34010KT CAVOK
TEMPO 2604/2607 VRB05KT
BECMG 2608/2610 04010G20KT SCT035
TEMPO 2610/2612 5000 SHRA SCT025CB
TEMPO 2612/2618 04015G25KT 4000 SHRAGS SCT025CB
BECMG 2618/2620 33010KT CAVOK
Pas de NOTAMs connus pour ce terrain.



MET'MAP, la Météo Aéronautique d'un coup d'oeil ! - Copyright ORBIFLY Décembre 2007 - Disclaimer

ORBIFLY MET'MAP TEAM :

Programmation & Développement : Alexandra Zaïnal
Conception & Développement : Baudouin d'Aumeries
Co-Programmation & Développement : Marc-Olivier Méhu
Soutien technique & logistique : Manuel Goepfert

Contact : metmap@orbifly.com




SOURCES & CREDITS :

   NOAA